sensor_id;sensor_type;location;lat;lon;timestamp;pressure;altitude;pressure_sealevel;temperature;humidity
47761;BME280;33524;55.434;38.520;2023-04-02T00:09:02;99788.50;;;5.82;86.83
47761;BME280;33524;55.434;38.520;2023-04-02T00:11:45;99780.41;;;5.73;88.91
47761;BME280;33524;55.434;38.520;2023-04-02T00:14:30;99772.66;;;5.85;85.15
47761;BME280;33524;55.434;38.520;2023-04-02T00:17:02;99783.12;;;5.71;88.71
47761;BME280;33524;55.434;38.520;2023-04-02T00:19:37;99785.25;;;5.79;88.23
47761;BME280;33524;55.434;38.520;2023-04-02T00:22:16;99784.91;;;5.71;89.32
47761;BME280;33524;55.434;38.520;2023-04-02T00:24:45;99779.31;;;5.62;90.51
47761;BME280;33524;55.434;38.520;2023-04-02T00:27:14;99783.94;;;5.72;89.71
47761;BME280;33524;55.434;38.520;2023-04-02T00:29:51;99789.81;;;5.75;89.23
47761;BME280;33524;55.434;38.520;2023-04-02T00:32:40;99792.59;;;5.72;89.92
47761;BME280;33524;55.434;38.520;2023-04-02T00:35:20;99789.06;;;5.87;85.86
47761;BME280;33524;55.434;38.520;2023-04-02T00:37:50;99788.31;;;6.00;84.75
47761;BME280;33524;55.434;38.520;2023-04-02T00:40:27;99794.38;;;6.00;85.49
47761;BME280;33524;55.434;38.520;2023-04-02T00:42:58;99789.16;;;6.00;88.29
47761;BME280;33524;55.434;38.520;2023-04-02T00:45:34;99799.84;;;6.10;86.81
47761;BME280;33524;55.434;38.520;2023-04-02T00:51:39;99803.03;;;5.86;89.17
47761;BME280;33524;55.434;38.520;2023-04-02T00:54:10;99807.34;;;6.02;89.05
47761;BME280;33524;55.434;38.520;2023-04-02T00:56:44;99808.06;;;5.90;89.32
47761;BME280;33524;55.434;38.520;2023-04-02T00:59:18;99806.66;;;5.84;91.57
47761;BME280;33524;55.434;38.520;2023-04-02T01:01:52;99820.09;;;5.78;92.37
47761;BME280;33524;55.434;38.520;2023-04-02T01:04:32;99812.56;;;6.02;87.77
47761;BME280;33524;55.434;38.520;2023-04-02T01:07:03;99824.47;;;6.06;86.64
47761;BME280;33524;55.434;38.520;2023-04-02T01:15:29;99810.75;;;5.88;88.19
47761;BME280;33524;55.434;38.520;2023-04-02T01:18:12;99800.06;;;5.78;91.80
47761;BME280;33524;55.434;38.520;2023-04-02T01:31:38;99801.75;;;5.51;93.27
47761;BME280;33524;55.434;38.520;2023-04-02T01:34:10;99797.56;;;5.48;91.97
47761;BME280;33524;55.434;38.520;2023-04-02T01:36:57;99807.53;;;5.41;92.85
47761;BME280;33524;55.434;38.520;2023-04-02T01:45:13;99808.19;;;5.45;89.37
47761;BME280;33524;55.434;38.520;2023-04-02T01:47:43;99816.94;;;5.44;91.13
47761;BME280;33524;55.434;38.520;2023-04-02T01:50:41;99813.59;;;5.42;91.81
47761;BME280;33524;55.434;38.520;2023-04-02T01:53:15;99816.00;;;5.45;91.33
47761;BME280;33524;55.434;38.520;2023-04-02T01:55:49;99812.38;;;5.47;92.44
47761;BME280;33524;55.434;38.520;2023-04-02T01:58:24;99808.25;;;5.58;91.97
47761;BME280;33524;55.434;38.520;2023-04-02T02:01:22;99800.44;;;5.43;92.64
47761;BME280;33524;55.434;38.520;2023-04-02T02:03:53;99818.44;;;5.48;93.00
47761;BME280;33524;55.434;38.520;2023-04-02T02:06:22;99826.16;;;5.50;92.87
47761;BME280;33524;55.434;38.520;2023-04-02T02:09:13;99815.84;;;5.48;92.58
47761;BME280;33524;55.434;38.520;2023-04-02T02:11:43;99822.34;;;5.41;91.77
47761;BME280;33524;55.434;38.520;2023-04-02T02:14:15;99829.03;;;5.45;91.96
47761;BME280;33524;55.434;38.520;2023-04-02T02:17:06;99816.00;;;5.59;90.84
47761;BME280;33524;55.434;38.520;2023-04-02T02:19:55;99820.69;;;5.69;90.07
47761;BME280;33524;55.434;38.520;2023-04-02T02:22:37;99820.75;;;5.81;87.73
47761;BME280;33524;55.434;38.520;2023-04-02T02:25:17;99828.59;;;5.96;84.16
47761;BME280;33524;55.434;38.520;2023-04-02T02:27:47;99831.38;;;6.07;83.96
47761;BME280;33524;55.434;38.520;2023-04-02T02:30:54;99823.00;;;6.02;86.02
47761;BME280;33524;55.434;38.520;2023-04-02T02:33:31;99820.38;;;5.87;88.88
47761;BME280;33524;55.434;38.520;2023-04-02T02:36:06;99826.50;;;5.86;88.08
47761;BME280;33524;55.434;38.520;2023-04-02T02:38:46;99825.59;;;6.02;85.62
47761;BME280;33524;55.434;38.520;2023-04-02T02:41:42;99820.09;;;6.06;84.28
47761;BME280;33524;55.434;38.520;2023-04-02T02:44:16;99829.41;;;6.11;83.91
47761;BME280;33524;55.434;38.520;2023-04-02T02:46:51;99826.44;;;6.02;84.83
47761;BME280;33524;55.434;38.520;2023-04-02T02:49:32;99836.50;;;6.09;85.76
47761;BME280;33524;55.434;38.520;2023-04-02T02:54:43;99830.09;;;6.00;85.94
47761;BME280;33524;55.434;38.520;2023-04-02T02:57:19;99824.22;;;5.96;86.13
47761;BME280;33524;55.434;38.520;2023-04-02T02:59:50;99834.16;;;6.18;82.87
47761;BME280;33524;55.434;38.520;2023-04-02T03:02:20;99830.19;;;6.25;82.63
47761;BME280;33524;55.434;38.520;2023-04-02T03:04:51;99830.16;;;6.13;83.97
47761;BME280;33524;55.434;38.520;2023-04-02T03:07:24;99836.94;;;6.15;83.55
47761;BME280;33524;55.434;38.520;2023-04-02T03:10:09;99835.47;;;6.11;84.01
47761;BME280;33524;55.434;38.520;2023-04-02T03:12:55;99839.81;;;6.25;82.87
47761;BME280;33524;55.434;38.520;2023-04-02T03:15:39;99842.81;;;6.19;83.38
47761;BME280;33524;55.434;38.520;2023-04-02T03:18:17;99852.53;;;6.17;84.09
47761;BME280;33524;55.434;38.520;2023-04-02T03:20:54;99850.56;;;6.20;84.34
47761;BME280;33524;55.434;38.520;2023-04-02T03:23:55;99858.09;;;6.25;83.49
47761;BME280;33524;55.434;38.520;2023-04-02T03:26:45;99855.66;;;6.22;83.03
47761;BME280;33524;55.434;38.520;2023-04-02T03:29:28;99859.31;;;6.19;85.55
47761;BME280;33524;55.434;38.520;2023-04-02T03:32:22;99869.47;;;6.10;85.79
47761;BME280;33524;55.434;38.520;2023-04-02T03:35:14;99869.78;;;6.05;86.91
47761;BME280;33524;55.434;38.520;2023-04-02T03:37:52;99867.16;;;5.91;88.67
47761;BME280;33524;55.434;38.520;2023-04-02T03:40:30;99853.19;;;5.77;88.47
47761;BME280;33524;55.434;38.520;2023-04-02T03:43:04;99876.75;;;5.90;87.84
47761;BME280;33524;55.434;38.520;2023-04-02T03:45:44;99875.19;;;5.87;89.84
47761;BME280;33524;55.434;38.520;2023-04-02T03:48:32;99867.97;;;5.91;89.55
47761;BME280;33524;55.434;38.520;2023-04-02T03:51:22;99876.12;;;6.01;87.49
47761;BME280;33524;55.434;38.520;2023-04-02T03:53:52;99875.38;;;5.99;87.16
47761;BME280;33524;55.434;38.520;2023-04-02T03:56:32;99871.00;;;5.99;86.18
47761;BME280;33524;55.434;38.520;2023-04-02T04:02:15;99874.25;;;6.17;84.17
47761;BME280;33524;55.434;38.520;2023-04-02T04:04:40;99876.50;;;6.09;85.34
47761;BME280;33524;55.434;38.520;2023-04-02T04:07:27;99874.94;;;6.34;81.96
47761;BME280;33524;55.434;38.520;2023-04-02T04:09:58;99873.09;;;6.21;85.14
47761;BME280;33524;55.434;38.520;2023-04-02T04:12:39;99880.38;;;6.31;83.37
47761;BME280;33524;55.434;38.520;2023-04-02T04:15:36;99878.44;;;6.20;85.55
47761;BME280;33524;55.434;38.520;2023-04-02T04:20:58;99884.56;;;6.33;82.22
47761;BME280;33524;55.434;38.520;2023-04-02T04:23:36;99882.41;;;6.40;81.63
47761;BME280;33524;55.434;38.520;2023-04-02T04:29:23;99888.75;;;6.36;81.66
47761;BME280;33524;55.434;38.520;2023-04-02T04:31:55;99887.91;;;6.35;81.91
47761;BME280;33524;55.434;38.520;2023-04-02T04:34:33;99888.09;;;6.32;82.15
47761;BME280;33524;55.434;38.520;2023-04-02T04:37:32;99881.88;;;6.35;81.12
47761;BME280;33524;55.434;38.520;2023-04-02T04:40:15;99902.09;;;6.45;81.06
47761;BME280;33524;55.434;38.520;2023-04-02T04:42:49;99890.88;;;6.43;81.16
47761;BME280;33524;55.434;38.520;2023-04-02T04:51:16;99898.62;;;6.45;81.29
47761;BME280;33524;55.434;38.520;2023-04-02T04:53:47;99900.59;;;6.41;82.28
47761;BME280;33524;55.434;38.520;2023-04-02T04:56:21;99906.34;;;6.46;82.44
47761;BME280;33524;55.434;38.520;2023-04-02T05:01:49;99908.87;;;6.48;81.54
47761;BME280;33524;55.434;38.520;2023-04-02T05:06:56;99910.06;;;6.57;80.95
47761;BME280;33524;55.434;38.520;2023-04-02T05:09:44;99904.78;;;6.71;80.41
47761;BME280;33524;55.434;38.520;2023-04-02T05:15:25;99899.00;;;6.80;79.91
47761;BME280;33524;55.434;38.520;2023-04-02T05:18:15;99905.53;;;6.73;81.19
47761;BME280;33524;55.434;38.520;2023-04-02T05:20:51;99906.72;;;6.82;79.97
47761;BME280;33524;55.434;38.520;2023-04-02T05:23:53;99910.22;;;6.95;78.98
47761;BME280;33524;55.434;38.520;2023-04-02T05:26:28;99910.41;;;6.92;80.34
47761;BME280;33524;55.434;38.520;2023-04-02T05:29:24;99907.78;;;6.92;79.94
47761;BME280;33524;55.434;38.520;2023-04-02T05:32:09;99900.56;;;6.83;81.23
47761;BME280;33524;55.434;38.520;2023-04-02T05:34:45;99910.97;;;6.97;79.66
47761;BME280;33524;55.434;38.520;2023-04-02T05:37:18;99911.28;;;7.05;79.08
47761;BME280;33524;55.434;38.520;2023-04-02T05:39:54;99911.81;;;7.11;78.63
47761;BME280;33524;55.434;38.520;2023-04-02T05:42:26;99907.78;;;7.19;78.18
47761;BME280;33524;55.434;38.520;2023-04-02T05:44:58;99914.97;;;7.16;78.60
47761;BME280;33524;55.434;38.520;2023-04-02T05:47:31;99919.16;;;7.18;78.85
47761;BME280;33524;55.434;38.520;2023-04-02T05:52:40;99925.22;;;7.19;78.84
47761;BME280;33524;55.434;38.520;2023-04-02T05:55:28;99926.91;;;7.20;79.08
47761;BME280;33524;55.434;38.520;2023-04-02T06:03:50;99926.38;;;7.15;79.65
47761;BME280;33524;55.434;38.520;2023-04-02T06:09:37;99917.25;;;7.07;79.51
47761;BME280;33524;55.434;38.520;2023-04-02T06:12:14;99925.66;;;7.25;78.35
47761;BME280;33524;55.434;38.520;2023-04-02T06:14:46;99927.69;;;7.35;78.53
47761;BME280;33524;55.434;38.520;2023-04-02T06:17:17;99926.44;;;7.40;77.92
47761;BME280;33524;55.434;38.520;2023-04-02T06:19:46;99924.97;;;7.36;78.13
47761;BME280;33524;55.434;38.520;2023-04-02T06:22:18;99923.09;;;7.38;78.30
47761;BME280;33524;55.434;38.520;2023-04-02T06:24:55;99932.41;;;7.42;77.87
47761;BME280;33524;55.434;38.520;2023-04-02T06:27:25;99927.19;;;7.42;77.68
47761;BME280;33524;55.434;38.520;2023-04-02T06:30:00;99930.78;;;7.27;78.77
47761;BME280;33524;55.434;38.520;2023-04-02T06:32:30;99942.53;;;7.34;78.10
47761;BME280;33524;55.434;38.520;2023-04-02T06:34:58;99939.37;;;7.29;78.06
47761;BME280;33524;55.434;38.520;2023-04-02T06:37:37;99944.88;;;7.12;79.43
47761;BME280;33524;55.434;38.520;2023-04-02T06:46:15;99948.06;;;7.30;78.22
47761;BME280;33524;55.434;38.520;2023-04-02T06:48:46;99944.50;;;7.18;79.28
47761;BME280;33524;55.434;38.520;2023-04-02T06:51:21;99947.63;;;7.23;78.71
47761;BME280;33524;55.434;38.520;2023-04-02T06:53:50;99945.97;;;7.22;78.58
47761;BME280;33524;55.434;38.520;2023-04-02T06:56:29;99944.91;;;7.24;78.66
47761;BME280;33524;55.434;38.520;2023-04-02T06:59:03;99943.03;;;7.26;78.63
47761;BME280;33524;55.434;38.520;2023-04-02T07:01:34;99954.66;;;7.35;78.65
47761;BME280;33524;55.434;38.520;2023-04-02T07:04:04;99954.59;;;7.50;77.75
47761;BME280;33524;55.434;38.520;2023-04-02T07:06:33;99948.53;;;7.62;76.99
47761;BME280;33524;55.434;38.520;2023-04-02T07:09:01;99947.72;;;7.74;76.85
47761;BME280;33524;55.434;38.520;2023-04-02T07:11:30;99945.81;;;7.76;76.59
47761;BME280;33524;55.434;38.520;2023-04-02T07:13:58;99948.75;;;7.84;76.17
47761;BME280;33524;55.434;38.520;2023-04-02T07:16:29;99935.44;;;7.75;76.71
47761;BME280;33524;55.434;38.520;2023-04-02T07:18:57;99950.22;;;7.76;77.54
47761;BME280;33524;55.434;38.520;2023-04-02T07:21:26;99946.25;;;7.70;78.10
47761;BME280;33524;55.434;38.520;2023-04-02T07:23:55;99950.84;;;8.05;75.65
47761;BME280;33524;55.434;38.520;2023-04-02T07:26:25;99950.53;;;8.09;75.23
47761;BME280;33524;55.434;38.520;2023-04-02T07:28:55;99942.47;;;8.00;75.87
47761;BME280;33524;55.434;38.520;2023-04-02T07:31:25;99944.75;;;7.92;76.55
47761;BME280;33524;55.434;38.520;2023-04-02T07:33:58;99951.19;;;7.87;76.39
47761;BME280;33524;55.434;38.520;2023-04-02T07:36:28;99949.41;;;7.88;76.48
47761;BME280;33524;55.434;38.520;2023-04-02T07:38:57;99958.91;;;8.02;75.74
47761;BME280;33524;55.434;38.520;2023-04-02T07:41:26;99955.03;;;7.95;75.92
47761;BME280;33524;55.434;38.520;2023-04-02T07:43:58;99957.13;;;7.89;76.36
47761;BME280;33524;55.434;38.520;2023-04-02T07:46:26;99958.91;;;7.76;77.28
47761;BME280;33524;55.434;38.520;2023-04-02T07:48:54;99950.88;;;7.79;77.26
47761;BME280;33524;55.434;38.520;2023-04-02T07:51:24;99956.09;;;7.92;76.67
47761;BME280;33524;55.434;38.520;2023-04-02T07:53:53;99954.09;;;8.08;75.69
47761;BME280;33524;55.434;38.520;2023-04-02T07:56:24;99956.50;;;8.12;75.53
47761;BME280;33524;55.434;38.520;2023-04-02T07:58:55;99958.06;;;8.14;75.45
47761;BME280;33524;55.434;38.520;2023-04-02T08:01:26;99965.41;;;8.09;75.66
47761;BME280;33524;55.434;38.520;2023-04-02T08:03:56;99957.31;;;8.12;75.30
47761;BME280;33524;55.434;38.520;2023-04-02T08:06:27;99962.47;;;8.01;75.78
47761;BME280;33524;55.434;38.520;2023-04-02T08:08:56;99967.41;;;8.05;75.51
47761;BME280;33524;55.434;38.520;2023-04-02T08:11:24;99956.50;;;7.99;75.55
47761;BME280;33524;55.434;38.520;2023-04-02T08:13:52;99976.84;;;8.21;75.02
47761;BME280;33524;55.434;38.520;2023-04-02T08:16:20;99969.16;;;8.18;75.21
47761;BME280;33524;55.434;38.520;2023-04-02T08:18:50;99972.66;;;7.93;76.21
47761;BME280;33524;55.434;38.520;2023-04-02T08:21:18;99965.94;;;8.01;75.74
47761;BME280;33524;55.434;38.520;2023-04-02T08:23:46;99972.84;;;7.89;76.42
47761;BME280;33524;55.434;38.520;2023-04-02T08:26:17;99972.41;;;7.96;76.32
47761;BME280;33524;55.434;38.520;2023-04-02T08:28:45;99965.91;;;8.14;75.59
47761;BME280;33524;55.434;38.520;2023-04-02T08:31:13;99972.72;;;8.04;75.94
47761;BME280;33524;55.434;38.520;2023-04-02T08:33:41;99978.59;;;8.20;75.23
47761;BME280;33524;55.434;38.520;2023-04-02T08:36:15;99978.53;;;7.96;76.47
47761;BME280;33524;55.434;38.520;2023-04-02T08:38:45;99964.88;;;8.04;75.71
47761;BME280;33524;55.434;38.520;2023-04-02T08:41:21;99979.75;;;8.03;76.28
47761;BME280;33524;55.434;38.520;2023-04-02T08:44:38;99983.22;;;8.04;76.14
47761;BME280;33524;55.434;38.520;2023-04-02T08:47:09;99983.31;;;8.15;75.74
47761;BME280;33524;55.434;38.520;2023-04-02T08:49:58;99973.69;;;8.03;76.12
47761;BME280;33524;55.434;38.520;2023-04-02T08:52:35;99977.66;;;7.96;76.55
47761;BME280;33524;55.434;38.520;2023-04-02T08:55:25;99973.06;;;7.99;76.18
47761;BME280;33524;55.434;38.520;2023-04-02T08:58:00;99977.38;;;7.87;77.43
47761;BME280;33524;55.434;38.520;2023-04-02T09:00:38;99985.19;;;8.26;75.61
47761;BME280;33524;55.434;38.520;2023-04-02T09:03:15;99981.31;;;8.06;76.79
47761;BME280;33524;55.434;38.520;2023-04-02T09:05:45;99991.06;;;8.29;75.75
47761;BME280;33524;55.434;38.520;2023-04-02T09:08:18;99981.31;;;8.32;75.67
47761;BME280;33524;55.434;38.520;2023-04-02T09:11:09;99992.84;;;8.55;74.52
47761;BME280;33524;55.434;38.520;2023-04-02T09:13:44;99987.69;;;8.53;74.76
47761;BME280;33524;55.434;38.520;2023-04-02T09:16:16;99991.81;;;8.44;75.48
47761;BME280;33524;55.434;38.520;2023-04-02T09:18:44;99989.16;;;8.57;74.94
47761;BME280;33524;55.434;38.520;2023-04-02T09:23:43;99985.19;;;8.88;73.57
47761;BME280;33524;55.434;38.520;2023-04-02T09:26:31;99979.34;;;8.85;73.74
47761;BME280;33524;55.434;38.520;2023-04-02T09:31:54;99976.94;;;9.06;73.02
47761;BME280;33524;55.434;38.520;2023-04-02T09:34:32;99976.84;;;9.07;73.24
47761;BME280;33524;55.434;38.520;2023-04-02T09:37:18;99970.81;;;9.18;72.62
47761;BME280;33524;55.434;38.520;2023-04-02T09:39:53;99982.47;;;9.14;73.02
47761;BME280;33524;55.434;38.520;2023-04-02T09:42:38;99979.75;;;9.16;72.91
47761;BME280;33524;55.434;38.520;2023-04-02T09:45:23;99967.34;;;9.18;73.22
47761;BME280;33524;55.434;38.520;2023-04-02T09:47:53;99975.00;;;9.32;72.41
47761;BME280;33524;55.434;38.520;2023-04-02T09:50:31;99964.50;;;9.21;72.86
47761;BME280;33524;55.434;38.520;2023-04-02T09:53:25;99975.19;;;9.42;72.37
47761;BME280;33524;55.434;38.520;2023-04-02T09:56:21;99975.06;;;9.43;72.41
47761;BME280;33524;55.434;38.520;2023-04-02T09:59:16;99978.13;;;9.61;71.75
47761;BME280;33524;55.434;38.520;2023-04-02T10:01:47;99970.37;;;9.71;71.47
47761;BME280;33524;55.434;38.520;2023-04-02T10:07:03;99968.75;;;10.04;70.49
47761;BME280;33524;55.434;38.520;2023-04-02T10:09:35;99970.53;;;10.15;70.29
47761;BME280;33524;55.434;38.520;2023-04-02T10:12:09;99970.81;;;10.45;69.32
47761;BME280;33524;55.434;38.520;2023-04-02T10:14:43;99959.09;;;10.61;68.76
47761;BME280;33524;55.434;38.520;2023-04-02T10:17:24;99967.56;;;10.76;68.49
47761;BME280;33524;55.434;38.520;2023-04-02T10:19:55;99968.72;;;10.83;68.13
47761;BME280;33524;55.434;38.520;2023-04-02T10:22:26;99963.66;;;11.02;67.90
47761;BME280;33524;55.434;38.520;2023-04-02T10:24:54;99957.09;;;11.29;67.09
47761;BME280;33524;55.434;38.520;2023-04-02T10:30:07;99960.69;;;11.49;66.40
47761;BME280;33524;55.434;38.520;2023-04-02T10:32:56;99966.75;;;11.61;66.09
47761;BME280;33524;55.434;38.520;2023-04-02T10:35:39;99955.00;;;11.65;66.18
47761;BME280;33524;55.434;38.520;2023-04-02T10:38:18;99964.50;;;11.77;66.18
47761;BME280;33524;55.434;38.520;2023-04-02T10:41:52;99957.03;;;11.82;66.27
47761;BME280;33524;55.434;38.520;2023-04-02T10:43:52;99963.56;;;11.88;64.58
47761;BME280;33524;55.434;38.520;2023-04-02T10:49:39;99957.81;;;12.25;64.94
47761;BME280;33524;55.434;38.520;2023-04-02T10:52:25;99963.94;;;12.25;64.79
47761;BME280;33524;55.434;38.520;2023-04-02T10:55:39;99964.50;;;12.29;64.99
47761;BME280;33524;55.434;38.520;2023-04-02T10:57:46;99966.84;;;12.22;65.08
47761;BME280;33524;55.434;38.520;2023-04-02T11:00:16;99965.50;;;12.07;65.79
47761;BME280;33524;55.434;38.520;2023-04-02T11:05:20;99955.25;;;12.04;66.58
47761;BME280;33524;55.434;38.520;2023-04-02T11:08:01;99954.31;;;12.15;64.20
47761;BME280;33524;55.434;38.520;2023-04-02T11:10:31;99954.00;;;12.08;64.85
47761;BME280;33524;55.434;38.520;2023-04-02T11:13:15;99953.19;;;12.07;65.18
47761;BME280;33524;55.434;38.520;2023-04-02T11:15:47;99959.50;;;12.26;65.16
47761;BME280;33524;55.434;38.520;2023-04-02T11:18:23;99957.88;;;12.35;66.11
47761;BME280;33524;55.434;38.520;2023-04-02T11:21:02;99945.59;;;12.64;65.53
47761;BME280;33524;55.434;38.520;2023-04-02T11:23:34;99953.50;;;12.64;65.04
47761;BME280;33524;55.434;38.520;2023-04-02T11:31:47;99952.91;;;13.11;62.18
47761;BME280;33524;55.434;38.520;2023-04-02T11:37:06;99948.88;;;13.36;61.61
47761;BME280;33524;55.434;38.520;2023-04-02T11:42:34;99941.91;;;13.16;61.14
47761;BME280;33524;55.434;38.520;2023-04-02T11:50:30;99942.19;;;13.22;62.94
47761;BME280;33524;55.434;38.520;2023-04-02T11:53:02;99943.03;;;13.42;62.97
47761;BME280;33524;55.434;38.520;2023-04-02T11:55:33;99942.47;;;13.29;60.67
47761;BME280;33524;55.434;38.520;2023-04-02T12:08:53;99940.97;;;13.46;61.12
47761;BME280;33524;55.434;38.520;2023-04-02T12:11:31;99941.34;;;13.41;57.68
47761;BME280;33524;55.434;38.520;2023-04-02T12:14:00;99936.62;;;13.16;58.96
47761;BME280;33524;55.434;38.520;2023-04-02T12:16:27;99929.66;;;12.95;59.13
47761;BME280;33524;55.434;38.520;2023-04-02T12:18:59;99925.53;;;13.02;63.01
47761;BME280;33524;55.434;38.520;2023-04-02T12:21:28;99928.03;;;13.33;63.52
47761;BME280;33524;55.434;38.520;2023-04-02T12:23:56;99927.88;;;13.15;60.20
47761;BME280;33524;55.434;38.520;2023-04-02T12:26:26;99927.19;;;13.13;63.48
47761;BME280;33524;55.434;38.520;2023-04-02T12:29:13;99929.53;;;13.65;62.50
47761;BME280;33524;55.434;38.520;2023-04-02T12:31:42;99926.44;;;13.79;57.15
47761;BME280;33524;55.434;38.520;2023-04-02T12:34:13;99927.22;;;14.27;57.11
47761;BME280;33524;55.434;38.520;2023-04-02T12:36:59;99912.16;;;14.55;58.79
47761;BME280;33524;55.434;38.520;2023-04-02T12:39:30;99915.25;;;14.50;55.07
47761;BME280;33524;55.434;38.520;2023-04-02T12:41:58;99920.00;;;14.47;58.33
47761;BME280;33524;55.434;38.520;2023-04-02T12:44:29;99916.00;;;14.15;56.40
47761;BME280;33524;55.434;38.520;2023-04-02T12:46:57;99917.81;;;14.15;55.48
47761;BME280;33524;55.434;38.520;2023-04-02T12:49:37;99916.87;;;14.33;56.91
47761;BME280;33524;55.434;38.520;2023-04-02T12:52:07;99917.97;;;14.41;53.50
47761;BME280;33524;55.434;38.520;2023-04-02T12:54:43;99915.72;;;14.46;53.86
47761;BME280;33524;55.434;38.520;2023-04-02T12:59:53;99919.06;;;14.20;53.49
47761;BME280;33524;55.434;38.520;2023-04-02T13:02:28;99917.78;;;14.24;53.61
47761;BME280;33524;55.434;38.520;2023-04-02T13:04:59;99917.97;;;14.41;53.81
47761;BME280;33524;55.434;38.520;2023-04-02T13:07:29;99910.09;;;14.49;53.61
47761;BME280;33524;55.434;38.520;2023-04-02T13:09:58;99913.88;;;14.56;57.52
47761;BME280;33524;55.434;38.520;2023-04-02T13:12:36;99918.06;;;14.21;52.93
47761;BME280;33524;55.434;38.520;2023-04-02T13:15:08;99916.78;;;13.98;58.15
47761;BME280;33524;55.434;38.520;2023-04-02T13:17:47;99910.53;;;13.42;59.76
47761;BME280;33524;55.434;38.520;2023-04-02T13:25:52;99912.44;;;12.81;62.85
47761;BME280;33524;55.434;38.520;2023-04-02T13:28:21;99911.63;;;13.00;61.42
47761;BME280;33524;55.434;38.520;2023-04-02T13:30:49;99914.12;;;13.21;64.25
47761;BME280;33524;55.434;38.520;2023-04-02T13:33:17;99920.94;;;13.24;62.88
47761;BME280;33524;55.434;38.520;2023-04-02T13:35:45;99916.19;;;13.27;63.02
47761;BME280;33524;55.434;38.520;2023-04-02T13:38:13;99920.09;;;13.23;62.07
47761;BME280;33524;55.434;38.520;2023-04-02T13:40:40;99913.84;;;12.95;60.93
47761;BME280;33524;55.434;38.520;2023-04-02T13:43:10;99916.75;;;13.11;60.25
47761;BME280;33524;55.434;38.520;2023-04-02T13:45:45;99911.28;;;13.62;60.19
47761;BME280;33524;55.434;38.520;2023-04-02T13:48:15;99907.81;;;14.08;54.68
47761;BME280;33524;55.434;38.520;2023-04-02T13:50:45;99916.69;;;14.17;54.34
47761;BME280;33524;55.434;38.520;2023-04-02T13:53:23;99916.78;;;13.98;56.41
47761;BME280;33524;55.434;38.520;2023-04-02T13:55:55;99915.16;;;13.77;59.10
47761;BME280;33524;55.434;38.520;2023-04-02T13:58:23;99925.13;;;13.36;56.82
47761;BME280;33524;55.434;38.520;2023-04-02T14:00:51;99917.59;;;13.22;60.91
47761;BME280;33524;55.434;38.520;2023-04-02T14:03:19;99919.25;;;13.03;56.63
47761;BME280;33524;55.434;38.520;2023-04-02T14:09:01;99921.94;;;12.43;61.21
47761;BME280;33524;55.434;38.520;2023-04-02T14:16:49;99927.25;;;12.13;58.52
47761;BME280;33524;55.434;38.520;2023-04-02T14:19:32;99917.37;;;12.45;60.81
47761;BME280;33524;55.434;38.520;2023-04-02T14:22:09;99924.03;;;12.09;64.37
47761;BME280;33524;55.434;38.520;2023-04-02T14:29:44;99926.38;;;11.81;65.60
47761;BME280;33524;55.434;38.520;2023-04-02T14:32:17;99930.44;;;11.85;65.05
47761;BME280;33524;55.434;38.520;2023-04-02T14:34:57;99933.16;;;11.74;65.32
47761;BME280;33524;55.434;38.520;2023-04-02T14:37:35;99928.84;;;11.52;65.39
47761;BME280;33524;55.434;38.520;2023-04-02T14:40:15;99927.94;;;11.42;64.15
47761;BME280;33524;55.434;38.520;2023-04-02T14:42:57;99927.56;;;11.25;66.46
47761;BME280;33524;55.434;38.520;2023-04-02T14:48:32;99926.59;;;11.47;67.55
47761;BME280;33524;55.434;38.520;2023-04-02T14:53:58;99935.50;;;10.82;67.19
47761;BME280;33524;55.434;38.520;2023-04-02T14:56:30;99936.66;;;10.89;64.11
47761;BME280;33524;55.434;38.520;2023-04-02T15:01:38;99931.87;;;10.83;67.22
47761;BME280;33524;55.434;38.520;2023-04-02T15:04:22;99937.84;;;10.96;64.10
47761;BME280;33524;55.434;38.520;2023-04-02T15:06:55;99941.59;;;11.15;67.85
47761;BME280;33524;55.434;38.520;2023-04-02T15:09:27;99932.97;;;10.80;68.15
47761;BME280;33524;55.434;38.520;2023-04-02T15:12:00;99941.03;;;10.67;68.46
47761;BME280;33524;55.434;38.520;2023-04-02T15:14:31;99947.94;;;10.68;68.91
47761;BME280;33524;55.434;38.520;2023-04-02T15:17:02;99942.94;;;10.54;69.35
47761;BME280;33524;55.434;38.520;2023-04-02T15:19:29;99946.50;;;10.76;68.28
47761;BME280;33524;55.434;38.520;2023-04-02T15:24:38;99945.81;;;10.06;68.61
47761;BME280;33524;55.434;38.520;2023-04-02T15:35:44;99953.72;;;10.28;70.11
47761;BME280;33524;55.434;38.520;2023-04-02T15:40:25;99953.31;;;9.88;68.13
47761;BME280;33524;55.434;38.520;2023-04-02T15:45:57;99954.25;;;9.18;66.59
47761;BME280;33524;55.434;38.520;2023-04-02T15:48:35;99956.31;;;9.01;69.00
47761;BME280;33524;55.434;38.520;2023-04-02T16:06:19;99968.38;;;9.39;72.15
47761;BME280;33524;55.434;38.520;2023-04-02T16:11:23;99971.19;;;9.60;72.20
47761;BME280;33524;55.434;38.520;2023-04-02T16:16:39;99978.44;;;9.57;71.76
47761;BME280;33524;55.434;38.520;2023-04-02T16:19:29;99977.91;;;9.40;70.67
47761;BME280;33524;55.434;38.520;2023-04-02T16:22:03;99983.03;;;9.66;71.26
47761;BME280;33524;55.434;38.520;2023-04-02T16:24:32;99984.03;;;9.41;71.89
47761;BME280;33524;55.434;38.520;2023-04-02T16:35:16;99995.22;;;9.07;72.67
47761;BME280;33524;55.434;38.520;2023-04-02T16:37:58;99995.66;;;9.01;72.26
47761;BME280;33524;55.434;38.520;2023-04-02T16:41:01;99990.75;;;8.84;72.77
47761;BME280;33524;55.434;38.520;2023-04-02T16:44:10;99998.03;;;9.04;72.48
47761;BME280;33524;55.434;38.520;2023-04-02T16:51:56;100000.31;;;9.09;71.62
47761;BME280;33524;55.434;38.520;2023-04-02T17:05:10;100007.06;;;8.63;72.53
47761;BME280;33524;55.434;38.520;2023-04-02T17:07:47;100013.87;;;8.66;72.90
47761;BME280;33524;55.434;38.520;2023-04-02T17:12:46;100015.25;;;8.72;72.18
47761;BME280;33524;55.434;38.520;2023-04-02T17:18:15;100018.09;;;8.68;72.24
47761;BME280;33524;55.434;38.520;2023-04-02T17:20:47;100018.09;;;8.56;71.77